Time,TemperatureF,DewpointF,PressureIn,WindDirection,WindDirectionDegrees,WindSpeedMPH,WindSpeedGustMPH,Humidity,HourlyPrecipIn,Conditions,Clouds,dailyrainin,SoftwareType,DateUTC
2013-10-16 00:01:00,77.0,67.8,29.91,NW,315,1.8,2.0,73,0.00,,,0.00,WUHU216HW,2013-10-16 04:01:00,
2013-10-16 00:05:00,77.0,67.8,29.91,North,0,1.3,2.0,73,0.00,,,0.00,WUHU216HW,2013-10-16 04:05:00,
2013-10-16 00:08:00,77.0,67.8,29.91,NNW,338,0.7,1.8,73,0.00,,,0.00,WUHU216HW,2013-10-16 04:08:00,
2013-10-16 00:13:00,77.0,67.8,29.91,NNE,23,0.7,1.3,73,0.00,,,0.00,WUHU216HW,2013-10-16 04:13:00,
2013-10-16 00:18:00,77.0,68.1,29.91,NNE,23,0.0,1.3,74,0.00,,,0.00,WUHU216HW,2013-10-16 04:18:00,
2013-10-16 00:23:00,76.9,68.0,29.91,NNE,23,0.4,1.1,74,0.00,,,0.00,WUHU216HW,2013-10-16 04:23:00,
2013-10-16 00:28:00,76.7,67.8,29.91,NNE,23,0.0,1.1,74,0.00,,,0.00,WUHU216HW,2013-10-16 04:28:00,
2013-10-16 00:34:00,76.7,67.8,29.91,NNE,23,0.4,0.4,74,0.00,,,0.00,WUHU216HW,2013-10-16 04:34:00,
2013-10-16 00:39:00,76.5,67.6,29.91,ENE,68,0.2,1.3,74,0.00,,,0.00,WUHU216HW,2013-10-16 04:39:00,
2013-10-16 00:44:00,76.3,67.8,29.91,NNE,23,0.4,1.3,75,0.00,,,0.00,WUHU216HW,2013-10-16 04:44:00,
2013-10-16 00:49:00,76.3,67.8,29.91,North,0,1.3,1.3,75,0.00,,,0.00,WUHU216HW,2013-10-16 04:49:00,
2013-10-16 00:54:00,76.1,67.7,29.91,North,0,0.0,1.3,75,0.00,,,0.00,WUHU216HW,2013-10-16 04:54:00,
2013-10-16 00:59:00,76.1,67.7,29.91,NNE,23,0.4,0.7,75,0.00,,,0.00,WUHU216HW,2013-10-16 04:59:00,
2013-10-16 01:04:00,76.1,67.7,29.91,NNE,23,0.0,0.7,75,0.00,,,0.00,WUHU216HW,2013-10-16 05:04:00,
2013-10-16 01:09:00,76.1,67.7,29.91,NNE,23,0.2,0.2,75,0.00,,,0.00,WUHU216HW,2013-10-16 05:09:00,
2013-10-16 01:14:00,76.0,67.5,29.91,NNE,23,0.0,0.4,75,0.00,,,0.00,WUHU216HW,2013-10-16 05:14:00,
2013-10-16 01:19:00,76.0,67.5,29.91,North,0,0.0,0.4,75,0.00,,,0.00,WUHU216HW,2013-10-16 05:19:00,
2013-10-16 01:24:00,76.0,67.9,29.91,North,0,0.0,0.4,76,0.00,,,0.00,WUHU216HW,2013-10-16 05:24:00,
2013-10-16 01:30:00,76.0,67.9,29.90,North,0,0.0,0.4,76,0.00,,,0.00,WUHU216HW,2013-10-16 05:30:00,
2013-10-16 01:35:00,75.8,67.7,29.91,North,0,0.0,0.4,76,0.00,,,0.00,WUHU216HW,2013-10-16 05:35:00,
2013-10-16 01:40:00,75.8,67.7,29.90,North,0,0.0,0.0,76,0.00,,,0.00,WUHU216HW,2013-10-16 05:40:00,
2013-10-16 01:45:00,75.6,67.5,29.91,North,0,0.4,0.9,76,0.00,,,0.00,WUHU216HW,2013-10-16 05:45:00,
2013-10-16 01:50:00,75.4,67.8,29.91,North,0,0.4,0.9,77,0.00,,,0.00,WUHU216HW,2013-10-16 05:50:00,
2013-10-16 01:55:00,75.4,67.8,29.90,North,0,0.2,1.3,77,0.00,,,0.00,WUHU216HW,2013-10-16 05:55:00,
2013-10-16 02:00:00,75.2,67.6,29.90,North,0,0.7,1.3,77,0.00,,,0.00,WUHU216HW,2013-10-16 06:00:00,
2013-10-16 02:05:00,75.2,67.6,29.90,North,0,0.4,0.7,77,0.00,,,0.00,WUHU216HW,2013-10-16 06:05:00,
2013-10-16 02:10:00,75.2,67.6,29.90,North,0,0.4,0.4,77,0.00,,,0.00,WUHU216HW,2013-10-16 06:10:00,
2013-10-16 02:15:00,75.2,67.6,29.90,North,0,0.0,0.7,77,0.00,,,0.00,WUHU216HW,2013-10-16 06:15:00,
2013-10-16 02:21:00,75.1,67.4,29.90,North,0,0.4,0.7,77,0.00,,,0.00,WUHU216HW,2013-10-16 06:21:00,
2013-10-16 02:26:00,75.1,67.4,29.90,North,0,0.0,0.9,77,0.00,,,0.00,WUHU216HW,2013-10-16 06:26:00,
2013-10-16 02:31:00,74.9,67.2,29.90,ENE,68,0.0,1.1,77,0.00,,,0.00,WUHU216HW,2013-10-16 06:31:00,
2013-10-16 02:36:00,74.7,67.1,29.90,NNE,23,0.0,1.6,77,0.00,,,0.00,WUHU216HW,2013-10-16 06:36:00,
2013-10-16 02:41:00,74.7,67.4,29.90,NNE,23,0.4,1.6,78,0.00,,,0.00,WUHU216HW,2013-10-16 06:41:00,
2013-10-16 02:44:00,74.5,67.2,29.90,North,0,0.4,0.4,78,0.00,,,0.00,WUHU216HW,2013-10-16 06:44:00,
2013-10-16 02:46:00,74.5,67.2,29.90,North,0,0.4,0.7,78,0.00,,,0.00,WUHU216HW,2013-10-16 06:46:00,
2013-10-16 02:51:00,74.5,67.2,29.90,North,0,0.4,0.7,78,0.00,,,0.00,WUHU216HW,2013-10-16 06:51:00,
2013-10-16 03:00:00,74.5,67.2,29.89,North,0,0.0,0.0,78,0.00,,,0.00,WUHU216HW,2013-10-16 07:00:00,
2013-10-16 03:05:00,74.5,67.2,29.89,North,0,0.0,0.0,78,0.00,,,0.00,WUHU216HW,2013-10-16 07:05:00,
2013-10-16 03:10:00,74.5,67.2,29.89,North,0,0.4,0.4,78,0.00,,,0.00,WUHU216HW,2013-10-16 07:10:00,
2013-10-16 03:15:00,74.5,67.2,29.89,North,0,0.4,0.7,78,0.00,,,0.00,WUHU216HW,2013-10-16 07:15:00,
2013-10-16 03:20:00,74.5,67.2,29.89,North,0,0.2,0.7,78,0.00,,,0.00,WUHU216HW,2013-10-16 07:20:00,
2013-10-16 03:26:00,74.5,67.2,29.89,North,0,0.2,0.4,78,0.00,,,0.00,WUHU216HW,2013-10-16 07:26:00,
2013-10-16 03:31:00,74.5,67.2,29.89,NNW,338,1.1,1.1,78,0.00,,,0.00,WUHU216HW,2013-10-16 07:31:00,
2013-10-16 03:36:00,74.3,67.1,29.89,NNE,23,1.1,1.1,78,0.00,,,0.00,WUHU216HW,2013-10-16 07:36:00,
2013-10-16 03:41:00,74.2,66.9,29.88,North,0,0.7,1.8,78,0.00,,,0.00,WUHU216HW,2013-10-16 07:41:00,
2013-10-16 03:46:00,73.8,66.6,29.88,NNE,23,1.8,1.8,78,0.00,,,0.00,WUHU216HW,2013-10-16 07:46:00,
2013-10-16 03:51:00,73.8,66.6,29.88,North,0,1.1,2.0,78,0.00,,,0.00,WUHU216HW,2013-10-16 07:51:00,
2013-10-16 03:56:00,73.8,66.6,29.88,North,0,0.9,1.8,78,0.00,,,0.00,WUHU216HW,2013-10-16 07:56:00,
2013-10-16 04:01:00,73.8,66.6,29.88,North,0,0.4,1.1,78,0.00,,,0.00,WUHU216HW,2013-10-16 08:01:00,
2013-10-16 04:06:00,73.6,66.4,29.88,North,0,0.7,1.8,78,0.00,,,0.00,WUHU216HW,2013-10-16 08:06:00,
2013-10-16 04:11:00,73.4,66.6,29.88,North,0,0.7,1.8,79,0.00,,,0.00,WUHU216HW,2013-10-16 08:11:00,
2013-10-16 04:17:00,73.4,66.6,29.88,North,0,0.7,1.6,79,0.00,,,0.00,WUHU216HW,2013-10-16 08:17:00,
2013-10-16 04:22:00,73.4,66.6,29.88,North,0,0.9,1.6,79,0.00,,,0.00,WUHU216HW,2013-10-16 08:22:00,
2013-10-16 04:27:00,73.4,66.6,29.88,North,0,1.6,1.6,79,0.00,,,0.00,WUHU216HW,2013-10-16 08:27:00,
2013-10-16 04:32:00,73.4,66.6,29.88,North,0,0.4,1.6,79,0.00,,,0.00,WUHU216HW,2013-10-16 08:32:00,
2013-10-16 04:37:00,73.4,66.6,29.88,NNW,338,0.7,1.8,79,0.00,,,0.00,WUHU216HW,2013-10-16 08:37:00,
2013-10-16 04:42:00,73.3,66.4,29.88,NNE,23,0.7,1.8,79,0.00,,,0.00,WUHU216HW,2013-10-16 08:42:00,
2013-10-16 04:47:00,73.1,66.3,29.88,North,0,1.6,1.6,79,0.00,,,0.00,WUHU216HW,2013-10-16 08:47:00,
2013-10-16 04:52:00,73.1,66.3,29.88,North,0,1.1,1.8,79,0.00,,,0.00,WUHU216HW,2013-10-16 08:52:00,
2013-10-16 04:57:00,73.1,66.3,29.88,North,0,0.7,1.8,79,0.00,,,0.00,WUHU216HW,2013-10-16 08:57:00,
2013-10-16 05:02:00,73.1,66.3,29.88,North,0,2.0,2.0,79,0.00,,,0.00,WUHU216HW,2013-10-16 09:02:00,
2013-10-16 05:07:00,73.1,66.3,29.89,North,0,1.6,2.0,79,0.00,,,0.00,WUHU216HW,2013-10-16 09:07:00,
2013-10-16 05:13:00,73.1,66.3,29.89,North,0,0.4,1.6,79,0.00,,,0.00,WUHU216HW,2013-10-16 09:13:00,
2013-10-16 05:18:00,73.1,66.3,29.88,North,0,1.6,1.6,79,0.00,,,0.00,WUHU216HW,2013-10-16 09:18:00,
2013-10-16 05:23:00,73.1,66.3,29.89,North,0,1.1,1.6,79,0.00,,,0.00,WUHU216HW,2013-10-16 09:23:00,
2013-10-16 05:28:00,73.1,66.3,29.89,North,0,1.1,1.3,79,0.00,,,0.00,WUHU216HW,2013-10-16 09:28:00,
2013-10-16 05:33:00,73.1,66.3,29.89,North,0,0.4,1.3,79,0.00,,,0.00,WUHU216HW,2013-10-16 09:33:00,
2013-10-16 05:38:00,73.1,66.3,29.89,NNE,23,0.2,1.1,79,0.00,,,0.00,WUHU216HW,2013-10-16 09:38:00,
2013-10-16 05:43:00,73.1,66.3,29.89,NNE,23,0.2,0.7,79,0.00,,,0.00,WUHU216HW,2013-10-16 09:43:00,
2013-10-16 05:48:00,73.1,66.3,29.89,NNE,23,0.7,0.7,79,0.00,,,0.00,WUHU216HW,2013-10-16 09:48:00,
2013-10-16 05:53:00,73.1,66.3,29.90,North,0,1.1,2.0,79,0.00,,,0.00,WUHU216HW,2013-10-16 09:53:00,
2013-10-16 05:58:00,73.1,66.3,29.90,North,0,1.1,2.2,79,0.00,,,0.00,WUHU216HW,2013-10-16 09:58:00,
2013-10-16 06:03:00,73.1,66.6,29.90,North,0,0.2,2.2,80,0.00,,,0.00,WUHU216HW,2013-10-16 10:03:00,
2013-10-16 06:08:00,72.9,66.4,29.90,North,0,1.6,1.6,80,0.00,,,0.00,WUHU216HW,2013-10-16 10:08:00,
2013-10-16 06:13:00,72.7,66.2,29.90,North,0,1.1,1.6,80,0.00,,,0.00,WUHU216HW,2013-10-16 10:13:00,
2013-10-16 06:18:00,72.7,66.2,29.91,North,0,0.4,1.1,80,0.00,,,0.00,WUHU216HW,2013-10-16 10:18:00,
2013-10-16 06:23:00,72.7,66.2,29.91,NE,45,1.6,1.6,80,0.00,,,0.00,WUHU216HW,2013-10-16 10:23:00,
2013-10-16 06:28:00,72.5,66.1,29.91,North,0,0.9,1.8,80,0.00,,,0.00,WUHU216HW,2013-10-16 10:28:00,
2013-10-16 06:34:00,72.5,66.1,29.91,North,0,0.2,1.8,80,0.00,,,0.00,WUHU216HW,2013-10-16 10:34:00,
2013-10-16 06:39:00,72.5,66.1,29.91,ENE,68,0.4,1.1,80,0.00,,,0.00,WUHU216HW,2013-10-16 10:39:00,
2013-10-16 06:44:00,72.5,66.1,29.91,North,0,1.1,1.3,80,0.00,,,0.00,WUHU216HW,2013-10-16 10:44:00,
2013-10-16 06:49:00,72.5,66.1,29.91,North,0,0.7,2.7,80,0.00,,,0.00,WUHU216HW,2013-10-16 10:49:00,
2013-10-16 06:54:00,72.5,66.1,29.91,NNE,23,1.1,2.7,80,0.00,,,0.00,WUHU216HW,2013-10-16 10:54:00,
2013-10-16 06:59:00,72.7,66.2,29.91,NNE,23,0.4,1.8,80,0.00,,,0.00,WUHU216HW,2013-10-16 10:59:00,
2013-10-16 07:04:00,72.7,65.9,29.91,NNE,23,1.8,2.2,79,0.00,,,0.00,WUHU216HW,2013-10-16 11:04:00,
2013-10-16 07:09:00,72.5,65.7,29.91,NNE,23,0.7,2.2,79,0.00,,,0.00,WUHU216HW,2013-10-16 11:09:00,
2013-10-16 07:14:00,72.5,65.7,29.91,North,0,0.4,1.8,79,0.00,,,0.00,WUHU216HW,2013-10-16 11:14:00,
2013-10-16 07:19:00,72.5,65.7,29.92,North,0,0.9,1.1,79,0.00,,,0.00,WUHU216HW,2013-10-16 11:19:00,
2013-10-16 07:24:00,72.5,65.7,29.91,North,0,2.2,2.2,79,0.00,,,0.00,WUHU216HW,2013-10-16 11:24:00,
2013-10-16 07:29:00,72.5,65.7,29.92,North,0,1.3,2.2,79,0.00,,,0.00,WUHU216HW,2013-10-16 11:29:00,
2013-10-16 07:34:00,72.4,65.2,29.92,North,0,0.7,1.8,78,0.00,,,0.00,WUHU216HW,2013-10-16 11:34:00,
2013-10-16 07:39:00,72.5,65.7,29.92,North,0,0.7,1.3,79,0.00,,,0.00,WUHU216HW,2013-10-16 11:39:00,
2013-10-16 07:44:00,72.4,65.2,29.92,North,0,0.7,1.1,78,0.00,,,0.00,WUHU216HW,2013-10-16 11:44:00,
2013-10-16 07:49:00,72.4,65.2,29.92,NW,315,1.6,1.6,78,0.00,,,0.00,WUHU216HW,2013-10-16 11:49:00,
2013-10-16 07:54:00,72.4,65.2,29.92,NNW,338,0.9,1.6,78,0.00,,,0.00,WUHU216HW,2013-10-16 11:54:00,
2013-10-16 08:00:00,72.5,65.7,29.92,NNW,338,1.1,1.6,79,0.00,,,0.00,WUHU216HW,2013-10-16 12:00:00,
2013-10-16 08:05:00,72.5,65.7,29.92,NNE,23,0.9,1.6,79,0.00,,,0.00,WUHU216HW,2013-10-16 12:05:00,
2013-10-16 08:10:00,72.7,65.9,29.93,North,0,1.1,1.8,79,0.00,,,0.00,WUHU216HW,2013-10-16 12:10:00,
2013-10-16 08:15:00,72.7,65.9,29.93,NNE,23,0.7,2.0,79,0.00,,,0.00,WUHU216HW,2013-10-16 12:15:00,
2013-10-16 08:20:00,72.7,65.9,29.93,North,0,0.4,2.0,79,0.00,,,0.00,WUHU216HW,2013-10-16 12:20:00,
2013-10-16 08:25:00,72.7,65.9,29.93,NW,315,2.5,2.5,79,0.00,,,0.00,WUHU216HW,2013-10-16 12:25:00,
2013-10-16 08:30:00,72.9,66.1,29.93,North,0,0.2,2.5,79,0.00,,,0.00,WUHU216HW,2013-10-16 12:30:00,
2013-10-16 08:35:00,72.9,66.1,29.93,NNW,338,1.8,2.2,79,0.00,,,0.00,WUHU216HW,2013-10-16 12:35:00,
2013-10-16 08:40:00,73.1,66.3,29.93,ENE,68,0.0,2.2,79,0.00,,,0.00,WUHU216HW,2013-10-16 12:40:00,
2013-10-16 08:45:00,73.3,66.4,29.93,NNE,23,1.6,1.6,79,0.00,,,0.00,WUHU216HW,2013-10-16 12:45:00,
2013-10-16 08:50:00,73.3,66.4,29.93,NE,45,0.9,1.8,79,0.00,,,0.00,WUHU216HW,2013-10-16 12:50:00,
2013-10-16 08:55:00,73.4,66.6,29.93,NNE,23,0.0,1.8,79,0.00,,,0.00,WUHU216HW,2013-10-16 12:55:00,
2013-10-16 09:00:00,73.8,67.0,29.94,North,0,2.0,2.0,79,0.00,,,0.00,WUHU216HW,2013-10-16 13:00:00,
2013-10-16 09:05:00,73.8,67.0,29.93,North,0,0.4,2.0,79,0.00,,,0.00,WUHU216HW,2013-10-16 13:05:00,
2013-10-16 09:10:00,74.0,67.2,29.93,North,0,0.0,2.0,79,0.00,,,0.00,WUHU216HW,2013-10-16 13:10:00,
2013-10-16 09:16:00,74.2,67.3,29.93,North,0,0.4,2.0,79,0.00,,,0.00,WUHU216HW,2013-10-16 13:16:00,
2013-10-16 09:21:00,74.3,67.5,29.94,North,0,1.1,1.1,79,0.00,,,0.00,WUHU216HW,2013-10-16 13:21:00,
2013-10-16 09:26:00,74.5,67.7,29.94,ENE,68,1.1,1.8,79,0.00,,,0.00,WUHU216HW,2013-10-16 13:26:00,
2013-10-16 09:31:00,74.9,68.1,29.94,North,0,0.4,1.8,79,0.00,,,0.00,WUHU216HW,2013-10-16 13:31:00,
2013-10-16 09:36:00,75.1,68.2,29.94,North,0,0.7,0.9,79,0.00,,,0.00,WUHU216HW,2013-10-16 13:36:00,
2013-10-16 09:41:00,75.2,68.4,29.94,ENE,68,0.0,1.3,79,0.00,,,0.00,WUHU216HW,2013-10-16 13:41:00,
2013-10-16 09:46:00,75.6,68.7,29.94,ENE,68,0.2,1.3,79,0.00,,,0.00,WUHU216HW,2013-10-16 13:46:00,
2013-10-16 09:51:00,76.1,69.2,29.94,NNW,338,0.9,1.3,79,0.00,,,0.00,WUHU216HW,2013-10-16 13:51:00,
2013-10-16 09:56:00,76.3,69.4,29.94,ESE,113,0.2,1.3,79,0.00,,,0.00,WUHU216HW,2013-10-16 13:56:00,
2013-10-16 10:01:00,76.7,69.7,29.94,NNE,23,0.0,1.3,79,0.00,,,0.00,WUHU216HW,2013-10-16 14:01:00,
2013-10-16 10:06:00,76.7,69.3,29.94,ESE,113,0.0,1.1,78,0.00,,,0.00,WUHU216HW,2013-10-16 14:06:00,
2013-10-16 10:11:00,77.0,69.7,29.94,SSE,158,1.8,1.8,78,0.00,,,0.00,WUHU216HW,2013-10-16 14:11:00,
2013-10-16 10:16:00,77.4,70.0,29.94,SE,135,0.4,1.8,78,0.00,,,0.00,WUHU216HW,2013-10-16 14:16:00,
2013-10-16 10:21:00,77.9,70.5,29.94,SE,135,0.4,1.1,78,0.00,,,0.00,WUHU216HW,2013-10-16 14:21:00,
2013-10-16 10:27:00,78.5,71.0,29.94,ESE,113,2.2,2.2,78,0.00,,,0.00,WUHU216HW,2013-10-16 14:27:00,
2013-10-16 10:32:00,78.8,71.0,29.93,SE,135,1.6,2.2,77,0.00,,,0.00,WUHU216HW,2013-10-16 14:32:00,
2013-10-16 10:37:00,79.2,71.4,29.93,SSE,158,1.1,2.0,77,0.00,,,0.00,WUHU216HW,2013-10-16 14:37:00,
2013-10-16 10:42:00,79.9,71.3,29.93,SE,135,1.8,2.0,75,0.00,,,0.00,WUHU216HW,2013-10-16 14:42:00,
2013-10-16 10:47:00,80.3,72.0,29.93,ESE,113,2.5,2.5,76,0.00,,,0.00,WUHU216HW,2013-10-16 14:47:00,
2013-10-16 10:52:00,80.6,72.0,29.93,SSE,158,3.4,3.4,75,0.00,,,0.00,WUHU216HW,2013-10-16 14:52:00,
2013-10-16 10:57:00,81.0,71.9,29.93,SE,135,2.5,3.4,74,0.00,,,0.00,WUHU216HW,2013-10-16 14:57:00,
2013-10-16 11:04:00,81.4,72.3,29.93,SE,135,0.7,2.5,74,0.00,,,0.00,WUHU216HW,2013-10-16 15:04:00,
2013-10-16 11:09:00,81.7,72.2,29.93,SSE,158,1.8,3.4,73,0.00,,,0.00,WUHU216HW,2013-10-16 15:09:00,
2013-10-16 11:15:00,82.1,73.0,29.93,East,90,1.3,3.4,74,0.00,,,0.00,WUHU216HW,2013-10-16 15:15:00,
2013-10-16 11:20:00,82.1,73.0,29.93,East,90,0.0,2.5,74,0.00,,,0.00,WUHU216HW,2013-10-16 15:20:00,
2013-10-16 11:25:00,82.3,72.3,29.93,ENE,68,2.7,2.7,72,0.00,,,0.00,WUHU216HW,2013-10-16 15:25:00,
2013-10-16 11:30:00,82.1,72.2,29.93,NNE,23,1.1,2.7,72,0.00,,,0.00,WUHU216HW,2013-10-16 15:30:00,
2013-10-16 11:35:00,82.3,72.3,29.92,ENE,68,1.3,2.0,72,0.00,,,0.00,WUHU216HW,2013-10-16 15:35:00,
2013-10-16 11:40:00,82.4,72.5,29.92,NNE,23,0.9,2.0,72,0.00,,,0.00,WUHU216HW,2013-10-16 15:40:00,
2013-10-16 11:45:00,82.6,72.6,29.92,East,90,2.0,2.0,72,0.00,,,0.00,WUHU216HW,2013-10-16 15:45:00,
2013-10-16 11:50:00,82.8,72.5,29.92,ESE,113,0.9,3.8,71,0.00,,,0.00,WUHU216HW,2013-10-16 15:50:00,
2013-10-16 11:56:00,83.3,72.9,29.92,ESE,113,0.4,3.8,71,0.00,,,0.00,WUHU216HW,2013-10-16 15:56:00,
2013-10-16 12:01:00,83.5,73.1,29.92,NNE,23,3.4,3.4,71,0.00,,,0.00,WUHU216HW,2013-10-16 16:01:00,
2013-10-16 12:06:00,83.7,73.3,29.92,North,0,0.0,3.4,71,0.00,,,0.00,WUHU216HW,2013-10-16 16:06:00,
2013-10-16 12:11:00,83.9,73.4,29.92,ESE,113,2.0,2.5,71,0.00,,,0.00,WUHU216HW,2013-10-16 16:11:00,
2013-10-16 12:16:00,84.2,73.4,29.92,SE,135,1.3,2.0,70,0.00,,,0.00,WUHU216HW,2013-10-16 16:16:00,
2013-10-16 12:21:00,85.0,74.2,29.92,NNW,338,1.1,1.6,70,0.00,,,0.00,WUHU216HW,2013-10-16 16:21:00,
2013-10-16 12:26:00,85.1,73.9,29.92,ESE,113,3.6,3.6,69,0.00,,,0.00,WUHU216HW,2013-10-16 16:26:00,
2013-10-16 12:31:00,85.5,73.8,29.92,ESE,113,0.4,3.6,68,0.00,,,0.00,WUHU216HW,2013-10-16 16:31:00,
2013-10-16 12:36:00,85.3,73.2,29.92,NE,45,0.9,3.4,67,0.00,,,0.00,WUHU216HW,2013-10-16 16:36:00,
2013-10-16 12:41:00,85.3,72.7,29.91,NNW,338,1.3,3.4,66,0.00,,,0.00,WUHU216HW,2013-10-16 16:41:00,
2013-10-16 12:46:00,85.5,73.4,29.91,NNW,338,0.7,4.5,67,0.00,,,0.00,WUHU216HW,2013-10-16 16:46:00,
2013-10-16 12:51:00,85.7,73.5,29.91,NNW,338,1.1,4.5,67,0.00,,,0.00,WUHU216HW,2013-10-16 16:51:00,
2013-10-16 12:56:00,85.9,73.2,29.91,NE,45,2.7,2.7,66,0.00,,,0.00,WUHU216HW,2013-10-16 16:56:00,
2013-10-16 13:01:00,86.0,72.5,29.91,NNW,338,3.4,3.4,64,0.00,,,0.00,WUHU216HW,2013-10-16 17:01:00,
2013-10-16 13:06:00,86.0,72.9,29.91,NE,45,3.4,3.4,65,0.00,,,0.00,WUHU216HW,2013-10-16 17:06:00,
2013-10-16 13:11:00,85.9,72.7,29.91,NNE,23,1.1,3.4,65,0.00,,,0.00,WUHU216HW,2013-10-16 17:11:00,
2013-10-16 13:17:00,85.9,72.7,29.91,NNW,338,1.8,2.2,65,0.00,,,0.00,WUHU216HW,2013-10-16 17:17:00,
2013-10-16 13:22:00,86.0,72.9,29.90,NNE,23,1.1,3.1,65,0.00,,,0.00,WUHU216HW,2013-10-16 17:22:00,
2013-10-16 13:27:00,86.0,72.5,29.90,NNE,23,2.2,3.1,64,0.00,,,0.00,WUHU216HW,2013-10-16 17:27:00,
2013-10-16 13:32:00,85.7,72.5,29.90,WNW,293,1.6,4.0,65,0.00,,,0.00,WUHU216HW,2013-10-16 17:32:00,
2013-10-16 13:37:00,85.5,72.4,29.90,NNW,338,1.1,4.0,65,0.00,,,0.00,WUHU216HW,2013-10-16 17:37:00,
2013-10-16 14:00:00,86.4,74.2,29.89,NW,315,2.9,2.9,67,0.00,,,0.00,WUHU216HW,2013-10-16 18:00:00,
2013-10-16 14:05:00,86.4,74.2,29.89,NW,315,0.9,2.9,67,0.00,,,0.00,WUHU216HW,2013-10-16 18:05:00,
2013-10-16 14:10:00,86.4,74.2,29.88,WSW,248,1.6,1.8,67,0.00,,,0.00,WUHU216HW,2013-10-16 18:10:00,
2013-10-16 14:15:00,86.4,74.2,29.88,WNW,293,3.1,3.1,67,0.00,,,0.00,WUHU216HW,2013-10-16 18:15:00,
2013-10-16 14:20:00,86.4,74.2,29.88,SSE,158,2.5,3.1,67,0.00,,,0.00,WUHU216HW,2013-10-16 18:20:00,
2013-10-16 14:25:00,86.4,74.2,29.88,North,0,1.1,3.8,67,0.00,,,0.00,WUHU216HW,2013-10-16 18:25:00,
2013-10-16 14:29:00,86.6,74.4,29.88,West,270,0.0,3.8,67,0.00,,,0.00,WUHU216HW,2013-10-16 18:29:00,
2013-10-16 14:34:00,86.8,74.5,29.88,SSW,203,1.8,3.1,67,0.00,,,0.00,WUHU216HW,2013-10-16 18:34:00,
2013-10-16 14:39:00,86.8,74.5,29.88,WSW,248,1.8,4.0,67,0.00,,,0.00,WUHU216HW,2013-10-16 18:39:00,
2013-10-16 14:44:00,86.6,73.9,29.88,NNW,338,1.1,4.0,66,0.00,,,0.00,WUHU216HW,2013-10-16 18:44:00,
2013-10-16 14:49:00,86.6,74.4,29.88,WSW,248,0.4,2.7,67,0.00,,,0.00,WUHU216HW,2013-10-16 18:49:00,
2013-10-16 14:54:00,86.4,74.2,29.88,South,180,1.1,2.9,67,0.00,,,0.00,WUHU216HW,2013-10-16 18:54:00,
2013-10-16 14:59:00,86.6,74.4,29.88,WSW,248,2.5,3.6,67,0.00,,,0.00,WUHU216HW,2013-10-16 18:59:00,
2013-10-16 15:04:00,86.6,74.4,29.88,WNW,293,4.0,5.6,67,0.00,,,0.00,WUHU216HW,2013-10-16 19:04:00,
2013-10-16 15:09:00,86.4,73.7,29.88,NNE,23,0.4,5.6,66,0.00,,,0.00,WUHU216HW,2013-10-16 19:09:00,
2013-10-16 15:14:00,86.2,73.5,29.88,WNW,293,3.4,4.5,66,0.00,,,0.00,WUHU216HW,2013-10-16 19:14:00,
2013-10-16 15:19:00,86.0,73.4,29.88,West,270,0.4,4.5,66,0.00,,,0.00,WUHU216HW,2013-10-16 19:19:00,
2013-10-16 15:24:00,86.0,73.4,29.88,West,270,2.9,4.0,66,0.00,,,0.00,WUHU216HW,2013-10-16 19:24:00,
2013-10-16 15:29:00,86.0,73.4,29.88,NNW,338,2.0,4.0,66,0.00,,,0.00,WUHU216HW,2013-10-16 19:29:00,
2013-10-16 15:35:00,86.2,74.0,29.88,West,270,1.8,4.0,67,0.00,,,0.00,WUHU216HW,2013-10-16 19:35:00,
2013-10-16 15:40:00,86.4,74.2,29.88,WSW,248,1.1,3.8,67,0.00,,,0.00,WUHU216HW,2013-10-16 19:40:00,
2013-10-16 15:45:00,86.2,73.5,29.87,NNW,338,5.8,5.8,66,0.00,,,0.00,WUHU216HW,2013-10-16 19:45:00,
2013-10-16 15:50:00,85.9,73.2,29.87,SSW,203,1.1,5.8,66,0.00,,,0.00,WUHU216HW,2013-10-16 19:50:00,
2013-10-16 15:55:00,85.5,73.4,29.87,West,270,2.0,3.8,67,0.00,,,0.00,WUHU216HW,2013-10-16 19:55:00,
2013-10-16 16:00:00,85.7,73.5,29.87,WSW,248,0.4,4.7,67,0.00,,,0.00,WUHU216HW,2013-10-16 20:00:00,
2013-10-16 16:05:00,85.5,72.8,29.87,West,270,3.1,4.7,66,0.00,,,0.00,WUHU216HW,2013-10-16 20:05:00,
2013-10-16 16:10:00,85.0,72.4,29.87,West,270,1.1,4.7,66,0.00,,,0.00,WUHU216HW,2013-10-16 20:10:00,
2013-10-16 16:15:00,85.0,71.9,29.86,SSE,158,4.3,5.6,65,0.00,,,0.00,WUHU216HW,2013-10-16 20:15:00,
2013-10-16 16:20:00,84.8,72.2,29.87,WSW,248,2.5,5.6,66,0.00,,,0.00,WUHU216HW,2013-10-16 20:20:00,
2013-10-16 16:25:00,84.8,71.7,29.87,WNW,293,4.5,4.7,65,0.00,,,0.00,WUHU216HW,2013-10-16 20:25:00,
2013-10-16 16:30:00,84.8,71.3,29.87,WNW,293,3.1,4.7,64,0.00,,,0.00,WUHU216HW,2013-10-16 20:30:00,
2013-10-16 16:36:00,84.8,71.3,29.87,NNW,338,1.8,4.7,64,0.00,,,0.00,WUHU216HW,2013-10-16 20:36:00,
2013-10-16 16:41:00,84.8,71.3,29.87,NW,315,2.5,4.7,64,0.00,,,0.00,WUHU216HW,2013-10-16 20:41:00,
2013-10-16 16:46:00,84.6,71.1,29.87,NW,315,3.6,4.3,64,0.00,,,0.00,WUHU216HW,2013-10-16 20:46:00,
2013-10-16 16:51:00,84.6,70.7,29.87,South,180,0.4,5.1,63,0.00,,,0.00,WUHU216HW,2013-10-16 20:51:00,
2013-10-16 16:56:00,84.6,70.7,29.87,NW,315,2.2,5.1,63,0.00,,,0.00,WUHU216HW,2013-10-16 20:56:00,
2013-10-16 17:01:00,84.8,70.8,29.87,WNW,293,2.2,3.4,63,0.00,,,0.00,WUHU216HW,2013-10-16 21:01:00,
2013-10-16 17:06:00,84.8,69.8,29.87,WNW,293,3.4,4.7,61,0.00,,,0.00,WUHU216HW,2013-10-16 21:06:00,
2013-10-16 17:11:00,84.6,70.2,29.87,NW,315,1.8,4.0,62,0.00,,,0.00,WUHU216HW,2013-10-16 21:11:00,
2013-10-16 17:16:00,84.6,70.7,29.87,SSW,203,2.9,4.0,63,0.00,,,0.00,WUHU216HW,2013-10-16 21:16:00,
2013-10-16 17:21:00,84.6,70.7,29.87,WNW,293,1.8,3.4,63,0.00,,,0.00,WUHU216HW,2013-10-16 21:21:00,
2013-10-16 17:26:00,84.4,70.5,29.88,NW,315,1.3,3.4,63,0.00,,,0.00,WUHU216HW,2013-10-16 21:26:00,
2013-10-16 17:31:00,84.2,70.7,29.88,NW,315,5.4,5.4,64,0.00,,,0.00,WUHU216HW,2013-10-16 21:31:00,
2013-10-16 17:37:00,84.1,70.6,29.88,WSW,248,2.2,5.4,64,0.00,,,0.00,WUHU216HW,2013-10-16 21:37:00,
2013-10-16 17:42:00,83.9,69.9,29.88,WNW,293,1.3,4.5,63,0.00,,,0.00,WUHU216HW,2013-10-16 21:42:00,
2013-10-16 17:47:00,83.9,70.4,29.88,North,0,3.1,4.0,64,0.00,,,0.00,WUHU216HW,2013-10-16 21:47:00,
2013-10-16 17:52:00,83.5,70.0,29.88,WSW,248,2.2,4.7,64,0.00,,,0.00,WUHU216HW,2013-10-16 21:52:00,
2013-10-16 17:57:00,83.3,69.8,29.88,North,0,4.5,4.7,64,0.00,,,0.00,WUHU216HW,2013-10-16 21:57:00,
2013-10-16 18:02:00,83.2,70.1,29.88,WNW,293,5.1,5.1,65,0.00,,,0.00,WUHU216HW,2013-10-16 22:02:00,
2013-10-16 18:07:00,83.0,69.9,29.88,West,270,3.1,5.1,65,0.00,,,0.00,WUHU216HW,2013-10-16 22:07:00,
2013-10-16 18:12:00,82.8,70.2,29.88,WSW,248,0.4,4.7,66,0.00,,,0.00,WUHU216HW,2013-10-16 22:12:00,
2013-10-16 18:17:00,82.6,70.0,29.88,WNW,293,1.3,4.5,66,0.00,,,0.00,WUHU216HW,2013-10-16 22:17:00,
2013-10-16 18:22:00,82.4,69.8,29.88,WSW,248,4.5,4.5,66,0.00,,,0.00,WUHU216HW,2013-10-16 22:22:00,
2013-10-16 18:27:00,82.4,69.8,29.87,WSW,248,0.0,4.5,66,0.00,,,0.00,WUHU216HW,2013-10-16 22:27:00,
2013-10-16 18:33:00,82.3,69.7,29.87,NNW,338,4.9,4.9,66,0.00,,,0.00,WUHU216HW,2013-10-16 22:33:00,
2013-10-16 18:38:00,82.1,69.9,29.88,NNW,338,1.3,4.9,67,0.00,,,0.00,WUHU216HW,2013-10-16 22:38:00,
2013-10-16 18:43:00,81.9,69.9,29.87,NW,315,2.9,3.4,67,0.00,,,0.00,WUHU216HW,2013-10-16 22:43:00,
2013-10-16 18:48:00,81.7,70.1,29.87,NNW,338,1.6,2.9,68,0.00,,,0.00,WUHU216HW,2013-10-16 22:48:00,
2013-10-16 18:53:00,81.7,70.1,29.87,WNW,293,2.9,2.9,68,0.00,,,0.00,WUHU216HW,2013-10-16 22:53:00,
2013-10-16 18:58:00,81.5,70.4,29.87,NNE,23,2.0,4.5,69,0.00,,,0.00,WUHU216HW,2013-10-16 22:58:00,
2013-10-16 19:03:00,81.4,70.7,29.87,NW,315,1.1,4.5,70,0.00,,,0.00,WUHU216HW,2013-10-16 23:03:00,
2013-10-16 19:08:00,81.4,70.7,29.87,NW,315,1.1,4.0,70,0.00,,,0.00,WUHU216HW,2013-10-16 23:08:00,
2013-10-16 19:13:00,81.2,70.5,29.87,NW,315,2.7,5.6,70,0.00,,,0.00,WUHU216HW,2013-10-16 23:13:00,
2013-10-16 19:18:00,81.0,70.7,29.87,NW,315,1.1,5.6,71,0.00,,,0.00,WUHU216HW,2013-10-16 23:18:00,
2013-10-16 19:23:00,81.0,70.7,29.87,NW,315,1.8,1.8,71,0.00,,,0.00,WUHU216HW,2013-10-16 23:23:00,
2013-10-16 19:29:00,81.0,70.7,29.88,NW,315,0.9,3.1,71,0.00,,,0.00,WUHU216HW,2013-10-16 23:29:00,
2013-10-16 19:34:00,80.8,70.6,29.88,WSW,248,0.4,3.1,71,0.00,,,0.00,WUHU216HW,2013-10-16 23:34:00,
2013-10-16 19:39:00,80.6,70.4,29.88,NNW,338,0.9,2.0,71,0.00,,,0.00,WUHU216HW,2013-10-16 23:39:00,
2013-10-16 19:44:00,80.6,70.8,29.87,NW,315,0.7,2.0,72,0.00,,,0.00,WUHU216HW,2013-10-16 23:44:00,
2013-10-16 19:49:00,80.5,70.7,29.88,WNW,293,0.7,3.1,72,0.00,,,0.00,WUHU216HW,2013-10-16 23:49:00,
2013-10-16 19:54:00,80.3,70.5,29.89,WNW,293,1.3,3.1,72,0.00,,,0.00,WUHU216HW,2013-10-16 23:54:00,
2013-10-16 19:59:00,80.3,70.5,29.89,NW,315,3.4,3.4,72,0.00,,,0.00,WUHU216HW,2013-10-16 23:59:00,
2013-10-16 20:04:00,80.3,70.5,29.89,NW,315,2.0,3.4,72,0.00,,,0.00,WUHU216HW,2013-10-17 00:04:00,
2013-10-16 20:09:00,80.1,70.3,29.89,NNE,23,0.4,2.0,72,0.00,,,0.00,WUHU216HW,2013-10-17 00:09:00,
2013-10-16 20:14:00,80.1,70.3,29.89,NNW,338,0.4,1.3,72,0.00,,,0.00,WUHU216HW,2013-10-17 00:14:00,
2013-10-16 20:19:00,80.1,70.3,29.89,NW,315,1.1,1.1,72,0.00,,,0.00,WUHU216HW,2013-10-17 00:19:00,
2013-10-16 20:24:00,80.1,70.3,29.89,NNW,338,1.3,1.3,72,0.00,,,0.00,WUHU216HW,2013-10-17 00:24:00,
2013-10-16 20:30:00,80.1,70.3,29.89,NW,315,1.1,1.6,72,0.00,,,0.00,WUHU216HW,2013-10-17 00:30:00,
2013-10-16 20:35:00,79.9,70.1,29.90,NNW,338,1.1,1.6,72,0.00,,,0.00,WUHU216HW,2013-10-17 00:35:00,
2013-10-16 20:40:00,79.9,70.1,29.90,NW,315,0.9,1.1,72,0.00,,,0.00,WUHU216HW,2013-10-17 00:40:00,
2013-10-16 20:45:00,79.9,70.1,29.90,NNW,338,1.1,1.6,72,0.00,,,0.00,WUHU216HW,2013-10-17 00:45:00,
2013-10-16 20:50:00,79.9,70.1,29.90,NNW,338,0.9,1.8,72,0.00,,,0.00,WUHU216HW,2013-10-17 00:50:00,
2013-10-16 20:55:00,79.7,69.9,29.91,North,0,0.9,1.8,72,0.00,,,0.00,WUHU216HW,2013-10-17 00:55:00,
2013-10-16 21:00:00,79.7,69.9,29.91,NNW,338,1.3,1.6,72,0.00,,,0.00,WUHU216HW,2013-10-17 01:00:00,
2013-10-16 21:05:00,79.7,69.9,29.91,NNW,338,0.4,1.6,72,0.00,,,0.00,WUHU216HW,2013-10-17 01:05:00,
2013-10-16 21:10:00,79.6,70.1,29.91,NNW,338,1.1,1.6,73,0.00,,,0.00,WUHU216HW,2013-10-17 01:10:00,
2013-10-16 21:15:00,79.6,70.1,29.91,NNW,338,1.1,1.8,73,0.00,,,0.00,WUHU216HW,2013-10-17 01:15:00,
2013-10-16 21:20:00,79.4,69.9,29.92,North,0,0.0,1.8,73,0.00,,,0.00,WUHU216HW,2013-10-17 01:20:00,
2013-10-16 21:25:00,79.4,69.9,29.92,NNW,338,0.4,1.6,73,0.00,,,0.00,WUHU216HW,2013-10-17 01:25:00,
2013-10-16 21:31:00,79.2,70.2,29.92,NNW,338,1.1,1.3,74,0.00,,,0.00,WUHU216HW,2013-10-17 01:31:00,
2013-10-16 21:36:00,79.2,69.8,29.92,North,0,0.2,1.3,73,0.00,,,0.00,WUHU216HW,2013-10-17 01:36:00,
2013-10-16 21:41:00,79.2,70.2,29.92,NW,315,0.2,1.1,74,0.00,,,0.00,WUHU216HW,2013-10-17 01:41:00,
2013-10-16 21:46:00,79.2,70.2,29.93,North,0,0.4,1.3,74,0.00,,,0.00,WUHU216HW,2013-10-17 01:46:00,
2013-10-16 21:51:00,79.0,70.0,29.92,NNE,23,1.3,1.3,74,0.00,,,0.00,WUHU216HW,2013-10-17 01:51:00,
2013-10-16 21:56:00,78.8,70.2,29.93,NNE,23,0.4,1.3,75,0.00,,,0.00,WUHU216HW,2013-10-17 01:56:00,
2013-10-16 22:01:00,78.7,70.0,29.93,NNE,23,1.1,1.8,75,0.00,,,0.00,WUHU216HW,2013-10-17 02:01:00,
2013-10-16 22:06:00,78.7,70.0,29.93,North,0,0.4,1.8,75,0.00,,,0.00,WUHU216HW,2013-10-17 02:06:00,
2013-10-16 22:11:00,78.5,69.8,29.93,North,0,1.3,1.3,75,0.00,,,0.00,WUHU216HW,2013-10-17 02:11:00,
2013-10-16 22:16:00,78.3,69.7,29.94,NNE,23,1.3,2.0,75,0.00,,,0.00,WUHU216HW,2013-10-17 02:16:00,
2013-10-16 22:21:00,78.1,69.5,29.93,NNE,23,1.3,2.5,75,0.00,,,0.00,WUHU216HW,2013-10-17 02:21:00,
2013-10-16 22:27:00,78.1,69.9,29.93,North,0,1.6,2.9,76,0.00,,,0.00,WUHU216HW,2013-10-17 02:27:00,
2013-10-16 22:32:00,77.9,69.8,29.93,NNE,23,1.1,3.4,76,0.00,,,0.00,WUHU216HW,2013-10-17 02:32:00,
2013-10-16 22:37:00,77.9,69.8,29.93,NNE,23,1.8,3.4,76,0.00,,,0.00,WUHU216HW,2013-10-17 02:37:00,
2013-10-16 22:42:00,77.8,69.6,29.94,North,0,3.4,3.4,76,0.00,,,0.00,WUHU216HW,2013-10-17 02:42:00,
2013-10-16 22:47:00,77.8,69.6,29.94,North,0,1.6,3.4,76,0.00,,,0.00,WUHU216HW,2013-10-17 02:47:00,
2013-10-16 22:52:00,77.8,69.6,29.94,NNE,23,2.9,3.4,76,0.00,,,0.00,WUHU216HW,2013-10-17 02:52:00,
2013-10-16 22:57:00,77.6,69.4,29.94,NNE,23,2.5,3.6,76,0.00,,,0.00,WUHU216HW,2013-10-17 02:57:00,
2013-10-16 22:59:00,77.6,69.4,29.94,North,0,1.1,1.1,76,0.00,,,0.00,WUHU216HW,2013-10-17 02:59:00,
2013-10-16 23:02:00,77.6,69.4,29.94,North,0,1.1,3.6,76,0.00,,,0.00,WUHU216HW,2013-10-17 03:02:00,
2013-10-16 23:07:00,77.6,69.4,29.94,North,0,1.1,1.6,76,0.00,,,0.00,WUHU216HW,2013-10-17 03:07:00,
2013-10-16 23:30:00,77.4,69.6,29.93,North,0,1.6,1.6,77,0.00,,,0.00,WUHU216HW,2013-10-17 03:30:00,
2013-10-16 23:31:00,77.4,69.6,29.93,North,0,1.6,1.6,77,0.00,,,0.00,WUHU216HW,2013-10-17 03:31:00,
2013-10-16 23:36:00,77.4,69.6,29.93,North,0,1.6,1.6,77,0.00,,,0.00,WUHU216HW,2013-10-17 03:36:00,